Kezdőlap
METAR-TAF:

METAR-TAF

Repülőterek :

Cascais, Portugália

földrajzi szélesség: 38-43-32N, földrajzi hosszúság: 009-21-19W, magasság: 99 m

Jelenlegi meteorológiai megfigyelések

A jelentés 46 perccel ezelõtt készült, 06:30 UTC
Északi szél 15 kt
Hőmérséklet 13°C
Páratartalom 82%
Légköri nyomás 1019 hPa
Látótávolság 10 km, vagy több
Kevés felhő 1800 lábon

METAR: LPCS 230630Z 36015KT 9999 FEW018 13/10 Q1019

Idő: 08:16 (07:16 UTC)

Előrejelzés

A jelentés 43 perccel ezelõtt készült, 06:33 UTC
Az előrejelzés 23-én 06 óra UTC és 23-én 15 óra UTC között érvényes
Északi szél 13 kt
Látótávolság 10 km, vagy több
Kevés felhő 1800 lábon
Valószínűség 30% :
23-én 10 óra UTC és 23-én 15 óra UTC között ideiglenes
Északi szél 15 kt széllökések: 27 kt

TAF: LPCS 230633Z 2306/2315 35013KT 9999 FEW018 PROB30 TEMPO 2310/2315 35015G27KT

Meteorológiai megfigyelések és előrejelzések több, mint 4000 repülőtéren (METAR és TAF jelentéseket).

A térképen piros és sárga pontok jelzik az elérhető meteorológiai állomásokat.

Mozgassa az egeret a pont fölött, hogy megjelenjen az állomás neve.

Azután kattintson az időjárási megfigyelések és előrejelzések megtekintéséhez.

A térkép megváltoztatása: kattintson a fekete keresztel jelölt zöld gombra ráközelítéshez, a vonallal jelölt zöld gombra távolításhoz, vagy a zöld nyilakra a szomszédos térképek eléréséhez.


METAR-TAF: